createdAt,value
2022-08-21T00:01:42.580Z,101615.69
2022-08-21T00:04:11.278Z,101623.94
2022-08-21T00:06:42.280Z,101624.63
2022-08-21T00:09:11.239Z,101618.97
2022-08-21T00:11:39.755Z,101626.63
2022-08-21T00:14:08.437Z,101620.13
2022-08-21T00:16:36.088Z,101626.41
2022-08-21T00:19:03.910Z,101623.72
2022-08-21T00:21:31.571Z,101619.88
2022-08-21T00:23:59.252Z,101622.88
2022-08-21T00:26:28.553Z,101614.72
2022-08-21T00:28:56.162Z,101617.69
2022-08-21T00:31:26.560Z,101623.94
2022-08-21T00:33:54.376Z,101616.97
2022-08-21T00:36:28.340Z,101615.59
2022-08-21T00:38:55.886Z,101613.09
2022-08-21T00:41:37.911Z,101617.38
2022-08-21T00:44:08.089Z,101607.13
2022-08-21T00:46:35.753Z,101609.25
2022-08-21T00:49:03.334Z,101613.69
2022-08-21T00:51:44.281Z,101613.31
2022-08-21T00:54:18.960Z,101605.06
2022-08-21T00:56:47.647Z,101606.28
2022-08-21T00:59:17.867Z,101595.38
2022-08-21T01:01:45.499Z,101600.06
2022-08-21T01:04:13.242Z,101603.69
2022-08-21T01:06:40.867Z,101596.41
2022-08-21T01:09:08.493Z,101597.41
2022-08-21T01:11:36.215Z,101595.91
2022-08-21T01:14:04.122Z,101605.53
2022-08-21T01:16:34.473Z,101594.91
2022-08-21T01:19:02.097Z,101596.72
2022-08-21T01:21:31.092Z,101595.38
2022-08-21T01:23:59.042Z,101595.22
2022-08-21T01:26:34.159Z,101588.56
2022-08-21T01:29:04.778Z,101594.03
2022-08-21T01:31:33.905Z,101582.91
2022-08-21T01:34:01.549Z,101590.72
2022-08-21T01:36:29.553Z,101588.38
2022-08-21T01:38:58.734Z,101581.56
2022-08-21T01:41:26.442Z,101575.91
2022-08-21T01:43:53.987Z,101577.06
2022-08-21T01:46:21.551Z,101579.91
2022-08-21T01:48:49.277Z,101579.56
2022-08-21T01:51:16.859Z,101580.06
2022-08-21T01:53:44.441Z,101578.91
2022-08-21T01:56:14.657Z,101568.75
2022-08-21T01:58:43.644Z,101575.25
2022-08-21T02:01:12.053Z,101572.09
2022-08-21T02:03:39.714Z,101565.25
2022-08-21T02:06:08.848Z,101564.44
2022-08-21T02:08:36.587Z,101563.25
2022-08-21T02:11:04.231Z,101556.44
2022-08-21T02:13:33.278Z,101556.44
2022-08-21T02:16:00.900Z,101554.44
2022-08-21T02:18:28.753Z,101555.28
2022-08-21T02:20:56.787Z,101546.31
2022-08-21T02:23:27.391Z,101546.63
2022-08-21T02:25:55.296Z,101551.47
2022-08-21T02:28:22.967Z,101550.63
2022-08-21T02:30:52.709Z,101549.78
2022-08-21T02:33:20.328Z,101543.31
2022-08-21T02:35:48.958Z,101542.47
2022-08-21T02:38:18.440Z,101540.81
2022-08-21T02:40:51.105Z,101539.16
2022-08-21T02:43:19.581Z,101532.66
2022-08-21T02:45:47.800Z,101533.50
2022-08-21T02:48:18.158Z,101535.16
2022-08-21T02:50:49.081Z,101529.50
2022-08-21T02:53:17.776Z,101528.69
2022-08-21T02:55:46.404Z,101528.34
2022-08-21T02:58:14.154Z,101525.19
2022-08-21T03:00:42.579Z,101528.34
2022-08-21T03:03:10.137Z,101532.66
2022-08-21T03:05:39.424Z,101532.53
2022-08-21T03:08:10.418Z,101528.25
2022-08-21T03:10:38.340Z,101530.59
2022-08-21T03:13:05.886Z,101533.94
2022-08-21T03:15:33.511Z,101524.28
2022-08-21T03:18:01.203Z,101519.28
2022-08-21T03:20:29.652Z,101522.09
2022-08-21T03:22:58.729Z,101513.25
2022-08-21T03:25:40.079Z,101517.75
2022-08-21T03:28:10.617Z,101515.06
2022-08-21T03:30:40.653Z,101510.09
2022-08-21T03:33:08.219Z,101513.56
2022-08-21T03:35:35.868Z,101512.22
2022-08-21T03:38:04.855Z,101506.44
2022-08-21T03:40:32.621Z,101495.81
2022-08-21T03:43:00.317Z,101504.41
2022-08-21T03:45:28.558Z,101505.88
2022-08-21T03:47:58.177Z,101496.91
2022-08-21T03:50:26.691Z,101499.56
2022-08-21T03:52:54.453Z,101508.34
2022-08-21T03:55:23.383Z,101503.38
2022-08-21T03:57:51.178Z,101502.56
2022-08-21T04:00:19.850Z,101509.69
2022-08-21T04:02:47.504Z,101498.22
2022-08-21T04:05:27.893Z,101501.69
2022-08-21T04:07:59.470Z,101505.66
2022-08-21T04:10:29.501Z,101507.97
2022-08-21T04:12:57.736Z,101507.78
2022-08-21T04:15:26.790Z,101517.56
2022-08-21T04:17:55.776Z,101514.38
2022-08-21T04:20:23.464Z,101520.31
2022-08-21T04:22:52.847Z,101516.44
2022-08-21T04:25:20.890Z,101517.13
2022-08-21T04:27:49.834Z,101517.75
2022-08-21T04:30:17.818Z,101524.88
2022-08-21T04:32:46.279Z,101520.19
2022-08-21T04:35:15.316Z,101525.97
2022-08-21T04:37:42.871Z,101524.13
2022-08-21T04:40:11.467Z,101518.31
2022-08-21T04:42:43.444Z,101526.25
2022-08-21T04:45:16.380Z,101525.41
2022-08-21T04:47:52.561Z,101525.72
2022-08-21T04:50:20.964Z,101526.56
2022-08-21T04:53:04.681Z,101530.22
2022-08-21T04:55:32.510Z,101522.91
2022-08-21T04:58:01.011Z,101532.84
2022-08-21T05:00:30.123Z,101525.84
2022-08-21T05:03:00.255Z,101528.16
2022-08-21T05:05:29.901Z,101532.13
2022-08-21T05:07:58.607Z,101536.28
2022-08-21T05:10:26.607Z,101550.06
2022-08-21T05:12:54.364Z,101546.59
2022-08-21T05:15:22.115Z,101550.44
2022-08-21T05:17:55.468Z,101550.63
2022-08-21T05:20:28.711Z,101551.97
2022-08-21T05:22:56.301Z,101548.19
2022-08-21T05:25:24.254Z,101547.22
2022-08-21T05:27:52.010Z,101545.09
2022-08-21T05:30:20.859Z,101546.28
2022-08-21T05:32:48.660Z,101547.53
2022-08-21T05:35:17.614Z,101545.59
2022-08-21T05:37:45.128Z,101550.75
2022-08-21T05:40:22.243Z,101539.53
2022-08-21T05:42:54.236Z,101539.06
2022-08-21T05:45:41.351Z,101539.78
2022-08-21T05:48:12.347Z,101542.50
2022-08-21T05:50:41.697Z,101546.31
2022-08-21T05:53:10.399Z,101543.66
2022-08-21T05:55:44.207Z,101541.41
2022-08-21T05:58:13.211Z,101544.06
2022-08-21T06:00:40.855Z,101545.03
2022-08-21T06:03:12.575Z,101543.06
2022-08-21T06:05:41.405Z,101553.34
2022-08-21T06:08:08.996Z,101548.19
2022-08-21T06:10:36.530Z,101540.69
2022-08-21T06:13:04.292Z,101542.81
2022-08-21T06:15:31.939Z,101541.50
2022-08-21T06:17:59.508Z,101541.81
2022-08-21T06:20:27.682Z,101541.63
2022-08-21T06:22:56.671Z,101555.09
2022-08-21T06:25:25.066Z,101548.28
2022-08-21T06:27:52.633Z,101557.22
2022-08-21T06:30:20.306Z,101560.22
2022-08-21T06:32:47.913Z,101553.06
2022-08-21T06:35:15.481Z,101554.88
2022-08-21T06:37:42.968Z,101554.38
2022-08-21T06:40:13.076Z,101550.97
2022-08-21T06:42:41.384Z,101552.44
2022-08-21T06:45:11.152Z,101554.28
2022-08-21T06:47:38.804Z,101559.31
2022-08-21T06:50:08.491Z,101549.94
2022-08-21T06:52:36.132Z,101548.97
2022-08-21T06:55:03.755Z,101556.94
2022-08-21T06:57:32.683Z,101559.81
2022-08-21T07:00:00.216Z,101557.03
2022-08-21T07:02:27.889Z,101555.97
2022-08-21T07:04:55.547Z,101557.22
2022-08-21T07:07:23.108Z,101549.09
2022-08-21T07:09:50.652Z,101559.03
2022-08-21T07:12:18.231Z,101560.06
2022-08-21T07:14:47.140Z,101559.78
2022-08-21T07:17:14.701Z,101555.13
2022-08-21T07:19:42.292Z,101559.81
2022-08-21T07:22:10.086Z,101563.00
2022-08-21T07:24:37.671Z,101566.63
2022-08-21T07:27:09.813Z,101564.41
2022-08-21T07:29:37.682Z,101565.88
2022-08-21T07:32:07.482Z,101561.13
2022-08-21T07:34:35.071Z,101566.06
2022-08-21T07:37:09.891Z,101569.09
2022-08-21T07:39:37.740Z,101565.69
2022-08-21T07:42:08.391Z,101573.59
2022-08-21T07:44:36.211Z,101568.34
2022-08-21T07:47:04.018Z,101571.69
2022-08-21T07:49:33.039Z,101570.88
2022-08-21T07:52:00.691Z,101563.06
2022-08-21T07:54:33.457Z,101566.34
2022-08-21T07:57:02.486Z,101568.41
2022-08-21T07:59:30.405Z,101560.13
2022-08-21T08:01:58.545Z,101568.66
2022-08-21T08:04:26.738Z,101570.13
2022-08-21T08:06:55.711Z,101562.16
2022-08-21T08:09:23.253Z,101559.06
2022-08-21T08:11:50.801Z,101557.16
2022-08-21T08:14:18.484Z,101569.75
2022-08-21T08:16:46.223Z,101564.47
2022-08-21T08:19:13.792Z,101560.31
2022-08-21T08:21:41.392Z,101570.50
2022-08-21T08:24:18.441Z,101575.22
2022-08-21T08:26:53.670Z,101565.06
2022-08-21T08:29:21.733Z,101572.56
2022-08-21T08:31:49.366Z,101565.34
2022-08-21T08:34:23.610Z,101569.50
2022-08-21T08:36:56.164Z,101561.00
2022-08-21T08:39:26.656Z,101563.25
2022-08-21T08:42:01.597Z,101560.50
2022-08-21T08:44:30.423Z,101561.31
2022-08-21T08:46:59.298Z,101561.81
2022-08-21T08:49:32.670Z,101567.06
2022-08-21T08:52:04.470Z,101564.13
2022-08-21T08:54:35.722Z,101561.91
2022-08-21T08:57:04.211Z,101563.06
2022-08-21T08:59:41.820Z,101560.44
2022-08-21T09:02:12.649Z,101561.53
2022-08-21T09:04:40.556Z,101568.59
2022-08-21T09:07:14.797Z,101565.97
2022-08-21T09:10:00.927Z,101570.22
2022-08-21T09:12:35.062Z,101562.91
2022-08-21T09:15:08.609Z,101571.84
2022-08-21T09:17:41.399Z,101569.56
2022-08-21T09:20:18.795Z,101571.25
2022-08-21T09:22:52.931Z,101571.94
2022-08-21T09:25:24.141Z,101578.41
2022-08-21T09:27:52.197Z,101574.53
2022-08-21T09:30:21.815Z,101574.84
2022-08-21T09:32:49.382Z,101583.88
2022-08-21T09:35:18.329Z,101585.47
2022-08-21T09:37:51.343Z,101581.66
2022-08-21T09:40:25.321Z,101579.19
2022-08-21T09:42:56.735Z,101591.38
2022-08-21T09:45:24.362Z,101574.09
2022-08-21T09:47:51.940Z,101578.28
2022-08-21T09:50:21.912Z,101578.50
2022-08-21T09:52:52.321Z,101580.50
2022-08-21T09:55:48.343Z,101583.31
2022-08-21T09:58:16.108Z,101586.66
2022-08-21T10:00:44.339Z,101588.34
2022-08-21T10:03:14.060Z,101590.03
2022-08-21T10:05:42.290Z,101596.44
2022-08-21T10:08:18.685Z,101597.63
2022-08-21T10:10:52.587Z,101594.13
2022-08-21T10:13:30.937Z,101589.38
2022-08-21T10:16:03.067Z,101587.97
2022-08-21T10:18:36.664Z,101597.47
2022-08-21T10:21:11.396Z,101594.84
2022-08-21T10:23:46.276Z,101596.97
2022-08-21T10:26:23.006Z,101610.94
2022-08-21T10:28:57.597Z,101604.47
2022-08-21T10:31:41.468Z,101588.25
2022-08-21T10:34:16.930Z,101599.84
2022-08-21T10:36:51.880Z,101595.56
2022-08-21T10:39:35.264Z,101597.78
2022-08-21T10:42:19.465Z,101592.81
2022-08-21T10:44:51.052Z,101590.50
2022-08-21T10:47:22.262Z,101597.88
2022-08-21T10:49:55.816Z,101595.03
2022-08-21T10:52:35.464Z,101589.88
2022-08-21T10:55:05.976Z,101590.78
2022-08-21T10:57:38.980Z,101586.75
2022-08-21T11:00:09.400Z,101589.28
2022-08-21T11:02:39.831Z,101586.44
2022-08-21T11:05:09.411Z,101593.84
2022-08-21T11:07:38.371Z,101607.81
2022-08-21T11:10:11.494Z,101602.06
2022-08-21T11:12:43.803Z,101609.03
2022-08-21T11:15:29.033Z,101601.63
2022-08-21T11:18:02.308Z,101602.34
2022-08-21T11:20:30.895Z,101611.38
2022-08-21T11:23:04.089Z,101609.00
2022-08-21T11:25:36.910Z,101614.75
2022-08-21T11:28:12.159Z,101617.97
2022-08-21T11:30:49.508Z,101619.91
2022-08-21T11:33:27.485Z,101613.38
2022-08-21T11:36:05.037Z,101621.19
2022-08-21T11:38:36.270Z,101620.44
2022-08-21T11:41:21.351Z,101623.00
2022-08-21T11:43:53.540Z,101616.81
2022-08-21T11:46:27.496Z,101616.75
2022-08-21T11:49:01.698Z,101613.03
2022-08-21T11:51:32.356Z,101612.28
2022-08-21T11:54:03.873Z,101609.44
2022-08-21T11:56:38.081Z,101616.03
2022-08-21T11:59:08.662Z,101619.75
2022-08-21T12:01:39.037Z,101613.16
2022-08-21T12:04:09.672Z,101630.84
2022-08-21T12:06:39.036Z,101628.00
2022-08-21T12:09:07.965Z,101627.56
2022-08-21T12:11:47.793Z,101620.16
2022-08-21T12:14:17.815Z,101622.22
2022-08-21T12:16:47.388Z,101623.84
2022-08-21T12:19:15.657Z,101628.81
2022-08-21T12:21:50.378Z,101630.44
2022-08-21T12:24:20.648Z,101624.69
2022-08-21T12:26:52.454Z,101623.06
2022-08-21T12:29:25.691Z,101616.09
2022-08-21T12:31:55.883Z,101614.81
2022-08-21T12:34:25.652Z,101611.56
2022-08-21T12:36:57.443Z,101613.59
2022-08-21T12:39:26.558Z,101624.31
2022-08-21T12:42:01.616Z,101616.47
2022-08-21T12:44:36.046Z,101623.06
2022-08-21T12:47:05.570Z,101620.19
2022-08-21T12:49:35.011Z,101629.59
2022-08-21T12:52:04.366Z,101624.66
2022-08-21T12:54:32.853Z,101629.59
2022-08-21T12:57:01.212Z,101618.94
2022-08-21T12:59:28.997Z,101629.59
2022-08-21T13:01:58.767Z,101614.78
2022-08-21T13:04:34.252Z,101626.25
2022-08-21T13:07:02.173Z,101621.34
2022-08-21T13:09:31.505Z,101622.56
2022-08-21T13:11:59.448Z,101614.78
2022-08-21T13:14:30.349Z,101616.44
2022-08-21T13:17:00.869Z,101626.34
2022-08-21T13:19:30.467Z,101627.97
2022-08-21T13:21:58.180Z,101630.44
2022-08-21T13:24:41.782Z,101630.41
2022-08-21T13:27:24.800Z,101633.69
2022-08-21T13:30:02.708Z,101626.22
2022-08-21T13:32:33.099Z,101625.72
2022-08-21T13:35:01.101Z,101628.97
2022-08-21T13:37:29.929Z,101631.38
2022-08-21T13:39:57.799Z,101635.47
2022-08-21T13:42:25.564Z,101635.78
2022-08-21T13:44:54.585Z,101633.13
2022-08-21T13:47:22.301Z,101632.69
2022-08-21T13:49:54.775Z,101631.38
2022-08-21T13:52:27.139Z,101638.59
2022-08-21T13:54:57.108Z,101644.53
2022-08-21T13:57:27.853Z,101646.91
2022-08-21T14:00:11.040Z,101643.66
2022-08-21T14:02:40.746Z,101636.31
2022-08-21T14:05:16.876Z,101644.97
2022-08-21T14:07:45.209Z,101637.22
2022-08-21T14:10:15.192Z,101641.72
2022-08-21T14:12:44.204Z,101641.66
2022-08-21T14:15:14.878Z,101636.56
2022-08-21T14:17:43.368Z,101638.59
2022-08-21T14:20:14.534Z,101640.88
2022-08-21T14:22:44.342Z,101639.03
2022-08-21T14:25:13.606Z,101638.75
2022-08-21T14:27:44.631Z,101639.09
2022-08-21T14:30:13.947Z,101632.44
2022-08-21T14:32:45.980Z,101639.69
2022-08-21T14:35:15.699Z,101639.69
2022-08-21T14:37:43.987Z,101644.53
2022-08-21T14:40:13.705Z,101651.91
2022-08-21T14:42:42.233Z,101651.75
2022-08-21T14:45:14.052Z,101649.03
2022-08-21T14:47:41.868Z,101649.72
2022-08-21T14:50:09.754Z,101656.66
2022-08-21T14:52:38.787Z,101652.28
2022-08-21T14:55:06.839Z,101652.72
2022-08-21T14:57:34.811Z,101654.44
2022-08-21T15:00:02.486Z,101653.88
2022-08-21T15:02:30.130Z,101657.59
2022-08-21T15:04:57.794Z,101658.13
2022-08-21T15:07:25.749Z,101658.78
2022-08-21T15:09:54.701Z,101662.84
2022-08-21T15:12:22.285Z,101661.06
2022-08-21T15:14:49.883Z,101669.81
2022-08-21T15:17:18.972Z,101669.81
2022-08-21T15:19:49.208Z,101674.91
2022-08-21T15:22:19.058Z,101673.78
2022-08-21T15:24:51.380Z,101668.28
2022-08-21T15:27:23.136Z,101677.66
2022-08-21T15:29:53.538Z,101674.25
2022-08-21T15:32:23.870Z,101676.38
2022-08-21T15:34:51.856Z,101672.53
2022-08-21T15:37:19.572Z,101679.72
2022-08-21T15:39:52.204Z,101679.72
2022-08-21T15:42:24.126Z,101670.00
2022-08-21T15:44:52.045Z,101677.25
2022-08-21T15:47:21.212Z,101676.81
2022-08-21T15:49:48.793Z,101680.00
2022-08-21T15:52:16.805Z,101682.50
2022-08-21T15:54:44.346Z,101678.34
2022-08-21T15:57:13.872Z,101676.59
2022-08-21T15:59:43.992Z,101682.31
2022-08-21T16:02:14.179Z,101687.47
2022-08-21T16:04:41.711Z,101673.00
2022-08-21T16:07:09.852Z,101690.38
2022-08-21T16:09:37.806Z,101680.72
2022-08-21T16:12:06.587Z,101677.41
2022-08-21T16:14:37.147Z,101674.84
2022-08-21T16:17:07.709Z,101671.72
2022-08-21T16:19:35.544Z,101671.94
2022-08-21T16:22:03.324Z,101675.06
2022-08-21T16:24:31.076Z,101669.38
2022-08-21T16:27:01.333Z,101672.50
2022-08-21T16:29:34.411Z,101674.25
2022-08-21T16:32:02.033Z,101675.97
2022-08-21T16:34:31.400Z,101674.38
2022-08-21T16:36:59.070Z,101668.06
2022-08-21T16:39:28.981Z,101669.34
2022-08-21T16:41:56.875Z,101672.84
2022-08-21T16:44:24.702Z,101671.75
2022-08-21T16:46:52.611Z,101672.78
2022-08-21T16:49:20.183Z,101665.84
2022-08-21T16:51:49.996Z,101663.16
2022-08-21T16:54:17.836Z,101661.25
2022-08-21T16:56:47.850Z,101671.34
2022-08-21T16:59:17.463Z,101663.44
2022-08-21T17:01:45.885Z,101665.47
2022-08-21T17:04:13.929Z,101672.81
2022-08-21T17:06:43.975Z,101667.84
2022-08-21T17:09:13.407Z,101669.94
2022-08-21T17:11:42.556Z,101665.44
2022-08-21T17:14:12.026Z,101665.44
2022-08-21T17:16:40.737Z,101659.63
2022-08-21T17:19:09.817Z,101656.69
2022-08-21T17:21:37.403Z,101653.75
2022-08-21T17:24:05.349Z,101660.66
2022-08-21T17:26:34.780Z,101654.28
2022-08-21T17:29:02.395Z,101653.72
2022-08-21T17:31:30.585Z,101658.09
2022-08-21T17:33:58.159Z,101659.44
2022-08-21T17:36:26.958Z,101661.41
2022-08-21T17:38:55.208Z,101654.09
2022-08-21T17:41:22.988Z,101661.13
2022-08-21T17:43:52.461Z,101650.81
2022-08-21T17:46:24.786Z,101652.84
2022-08-21T17:48:52.470Z,101653.56
2022-08-21T17:51:20.242Z,101654.28
2022-08-21T17:53:47.844Z,101656.19
2022-08-21T17:56:16.859Z,101649.44
2022-08-21T17:58:46.776Z,101654.06
2022-08-21T18:01:17.471Z,101655.84
2022-08-21T18:03:47.030Z,101649.44
2022-08-21T18:06:17.760Z,101649.59
2022-08-21T18:08:46.245Z,101649.69
2022-08-21T18:11:17.992Z,101648.97
2022-08-21T18:13:53.418Z,101649.47
2022-08-21T18:16:22.808Z,101644.72
2022-08-21T18:18:51.520Z,101642.81
2022-08-21T18:21:19.203Z,101645.75
2022-08-21T18:23:46.926Z,101645.50
2022-08-21T18:26:15.549Z,101653.75
2022-08-21T18:28:44.156Z,101651.81
2022-08-21T18:31:12.550Z,101658.44
2022-08-21T18:33:43.616Z,101661.34
2022-08-21T18:36:24.622Z,101656.63
2022-08-21T18:38:53.805Z,101652.34
2022-08-21T18:41:22.127Z,101652.88
2022-08-21T18:43:50.197Z,101655.94
2022-08-21T18:46:19.027Z,101667.38
2022-08-21T18:48:48.041Z,101659.28
2022-08-21T18:51:17.474Z,101671.50
2022-08-21T18:53:47.737Z,101673.22
2022-08-21T18:56:21.865Z,101663.63
2022-08-21T18:58:50.805Z,101673.84
2022-08-21T19:01:18.590Z,101663.72
2022-08-21T19:03:46.257Z,101672.78
2022-08-21T19:06:18.823Z,101672.47
2022-08-21T19:08:46.823Z,101675.03
2022-08-21T19:11:14.409Z,101667.41
2022-08-21T19:13:51.741Z,101677.59
2022-08-21T19:16:20.608Z,101675.31
2022-08-21T19:18:48.336Z,101678.97
2022-08-21T19:21:16.340Z,101681.50
2022-08-21T19:23:48.224Z,101689.34
2022-08-21T19:26:21.865Z,101686.72
2022-08-21T19:28:51.499Z,101692.88
2022-08-21T19:34:09.537Z,101691.44
2022-08-21T19:36:37.295Z,101690.44
2022-08-21T19:39:08.330Z,101693.44
2022-08-21T19:41:38.652Z,101696.97
2022-08-21T19:44:09.235Z,101699.94
2022-08-21T19:46:38.682Z,101698.97
2022-08-21T19:49:08.770Z,101697.47
2022-08-21T19:51:38.209Z,101687.50
2022-08-21T19:56:56.042Z,101691.16
2022-08-21T19:59:25.480Z,101703.97
2022-08-21T20:01:53.106Z,101698.47
2022-08-21T20:04:20.711Z,101703.13
2022-08-21T20:06:48.958Z,101698.47
2022-08-21T20:09:18.501Z,101706.75
2022-08-21T20:11:49.095Z,101712.25
2022-08-21T20:14:19.162Z,101708.41
2022-08-21T20:16:47.582Z,101709.09
2022-08-21T20:19:15.172Z,101717.41
2022-08-21T20:21:44.608Z,101714.41
2022-08-21T20:24:14.647Z,101709.41
2022-08-21T20:26:49.349Z,101709.75
2022-08-21T20:29:24.172Z,101709.22
2022-08-21T20:31:56.899Z,101707.91
2022-08-21T20:34:25.490Z,101717.06
2022-08-21T20:36:53.436Z,101712.91
2022-08-21T20:39:23.752Z,101711.06
2022-08-21T20:41:54.635Z,101714.19
2022-08-21T20:44:22.739Z,101715.19
2022-08-21T20:46:55.411Z,101711.84
2022-08-21T20:49:26.744Z,101709.69
2022-08-21T20:51:54.992Z,101707.53
2022-08-21T20:54:26.589Z,101718.31
2022-08-21T20:56:57.875Z,101714.16
2022-08-21T20:59:35.559Z,101718.16
2022-08-21T21:04:58.966Z,101712.31
2022-08-21T21:07:28.966Z,101713.81
2022-08-21T21:10:00.287Z,101718.94
2022-08-21T21:12:32.519Z,101713.13
2022-08-21T21:15:02.116Z,101719.13
2022-08-21T21:17:35.741Z,101721.44
2022-08-21T21:20:10.101Z,101719.75
2022-08-21T21:22:39.795Z,101722.91
2022-08-21T21:25:09.001Z,101723.22
2022-08-21T21:27:41.431Z,101721.88
2022-08-21T21:30:12.108Z,101719.41
2022-08-21T21:32:58.960Z,101718.56
2022-08-21T21:35:32.567Z,101724.53
2022-08-21T21:38:10.637Z,101719.19
2022-08-21T21:40:43.440Z,101721.50
2022-08-21T21:43:18.483Z,101726.63
2022-08-21T21:45:55.701Z,101725.63
2022-08-21T21:48:38.210Z,101725.97
2022-08-21T21:51:12.200Z,101724.63
2022-08-21T21:54:05.454Z,101728.59
2022-08-21T21:56:36.031Z,101725.25
2022-08-21T21:59:25.330Z,101727.56
2022-08-21T22:02:02.999Z,101723.72
2022-08-21T22:04:34.277Z,101737.66
2022-08-21T22:07:09.766Z,101737.47
2022-08-21T22:09:44.450Z,101745.44
2022-08-21T22:12:22.961Z,101746.91
2022-08-21T22:14:53.491Z,101745.56
2022-08-21T22:17:30.092Z,101745.06
2022-08-21T22:19:59.217Z,101738.91
2022-08-21T22:22:27.958Z,101740.69
2022-08-21T22:25:00.740Z,101740.22
2022-08-21T22:27:31.901Z,101736.38
2022-08-21T22:30:02.239Z,101737.00
2022-08-21T22:32:31.673Z,101728.34
2022-08-21T22:35:03.575Z,101733.78
2022-08-21T22:37:34.887Z,101738.41
2022-08-21T22:40:03.297Z,101741.56
2022-08-21T22:42:31.265Z,101744.19
2022-08-21T22:44:59.703Z,101729.91
2022-08-21T22:47:34.471Z,101728.88
2022-08-21T22:50:04.992Z,101728.66
2022-08-21T22:52:34.364Z,101722.84
2022-08-21T22:55:04.946Z,101727.16
2022-08-21T22:57:33.544Z,101726.63
2022-08-21T23:00:02.741Z,101716.00
2022-08-21T23:02:35.388Z,101720.28
2022-08-21T23:05:10.307Z,101720.94
2022-08-21T23:07:43.498Z,101719.56
2022-08-21T23:10:19.051Z,101724.66
2022-08-21T23:12:49.117Z,101716.84
2022-08-21T23:15:17.899Z,101722.81
2022-08-21T23:20:40.678Z,101721.47
2022-08-21T23:23:14.001Z,101715.31
2022-08-21T23:25:54.195Z,101724.91
2022-08-21T23:28:27.943Z,101721.28
2022-08-21T23:30:59.369Z,101730.88
2022-08-21T23:33:38.615Z,101725.03
2022-08-21T23:36:28.406Z,101730.97
2022-08-21T23:39:05.242Z,101729.31
2022-08-21T23:41:37.551Z,101727.97
2022-08-21T23:44:11.037Z,101722.31
2022-08-21T23:46:53.607Z,101727.97
2022-08-21T23:49:28.943Z,101727.13
2022-08-21T23:52:04.356Z,101731.94
2022-08-21T23:54:36.117Z,101721.81
2022-08-21T23:57:12.640Z,101732.59
2022-08-21T23:59:44.569Z,101725.59
